createdAt,value
2017-02-05T00:00:02.098Z,22.77
2017-02-05T00:00:30.625Z,22.74
2017-02-05T00:00:59.150Z,22.78
2017-02-05T00:01:27.774Z,22.84
2017-02-05T00:01:56.232Z,22.83
2017-02-05T00:02:24.843Z,22.88
2017-02-05T00:02:53.280Z,22.81
2017-02-05T00:03:21.875Z,22.89
2017-02-05T00:03:50.368Z,22.88
2017-02-05T00:04:18.893Z,22.77
2017-02-05T00:04:47.501Z,22.81
2017-02-05T00:05:15.998Z,22.81
2017-02-05T00:05:44.612Z,22.89
2017-02-05T00:06:13.216Z,22.89
2017-02-05T00:06:41.816Z,22.89
2017-02-05T00:07:10.323Z,22.88
2017-02-05T00:07:38.943Z,22.84
2017-02-05T00:08:07.482Z,22.84
2017-02-05T00:08:35.998Z,22.88
2017-02-05T00:09:04.634Z,22.83
2017-02-05T00:09:33.237Z,22.86
2017-02-05T00:10:01.850Z,22.81
2017-02-05T00:10:30.368Z,22.89
2017-02-05T00:10:58.983Z,22.88
2017-02-05T00:11:27.585Z,22.84
2017-02-05T00:11:56.225Z,22.91
2017-02-05T00:12:24.772Z,22.81
2017-02-05T00:12:53.308Z,22.86
2017-02-05T00:13:21.864Z,22.83
2017-02-05T00:13:50.482Z,22.81
2017-02-05T00:14:19.113Z,22.83
2017-02-05T00:14:47.711Z,22.81
2017-02-05T00:15:16.325Z,22.78
2017-02-05T00:15:44.945Z,22.86
2017-02-05T00:16:13.476Z,22.84
2017-02-05T00:16:42.091Z,22.8
2017-02-05T00:17:10.692Z,22.84
2017-02-05T00:17:39.195Z,22.83
2017-02-05T00:18:07.861Z,22.74
2017-02-05T00:18:36.434Z,22.78
2017-02-05T00:19:05.059Z,22.76
2017-02-05T00:19:33.557Z,22.83
2017-02-05T00:20:02.169Z,22.78
2017-02-05T00:20:32.201Z,22.84
2017-02-05T00:21:00.811Z,22.83
2017-02-05T00:21:29.329Z,22.88
2017-02-05T00:21:57.937Z,22.89
2017-02-05T00:22:26.954Z,22.81
2017-02-05T00:22:55.552Z,22.88
2017-02-05T00:23:24.091Z,22.77
2017-02-05T00:23:52.690Z,22.74
2017-02-05T00:24:21.305Z,22.73
2017-02-05T00:24:49.949Z,22.77
2017-02-05T00:25:18.567Z,22.73
2017-02-05T00:25:47.190Z,22.74
2017-02-05T00:26:15.730Z,22.68
2017-02-05T00:26:44.336Z,22.67
2017-02-05T00:27:12.828Z,22.67
2017-02-05T00:27:41.443Z,22.71
2017-02-05T00:28:10.047Z,22.68
2017-02-05T00:28:38.654Z,22.63
2017-02-05T00:29:07.394Z,22.67
2017-02-05T00:29:35.935Z,22.67
2017-02-05T00:30:04.542Z,22.68
2017-02-05T00:30:33.209Z,22.68
2017-02-05T00:31:01.845Z,22.68
2017-02-05T00:31:30.374Z,22.71
2017-02-05T00:31:58.981Z,22.68
2017-02-05T00:32:27.579Z,22.65
2017-02-05T00:32:56.139Z,22.71
2017-02-05T00:33:24.675Z,22.65
2017-02-05T00:33:53.225Z,22.63
2017-02-05T00:34:21.835Z,22.63
2017-02-05T00:34:50.448Z,22.68
2017-02-05T00:35:19.229Z,22.58
2017-02-05T00:35:47.858Z,22.55
2017-02-05T00:36:16.482Z,22.56
2017-02-05T00:36:44.843Z,22.53
2017-02-05T00:37:13.474Z,22.61
2017-02-05T00:37:42.076Z,22.73
2017-02-05T00:38:10.600Z,22.65
2017-02-05T00:38:39.204Z,22.62
2017-02-05T00:39:07.854Z,22.7
2017-02-05T00:39:36.514Z,22.68
2017-02-05T00:40:05.121Z,22.65
2017-02-05T00:40:33.557Z,22.71
2017-02-05T00:41:02.160Z,22.67
2017-02-05T00:41:30.755Z,22.65
2017-02-05T00:41:59.278Z,22.67
2017-02-05T00:42:27.864Z,22.68
2017-02-05T00:42:56.533Z,22.71
2017-02-05T00:43:25.051Z,22.67
2017-02-05T00:43:53.679Z,22.71
2017-02-05T00:44:22.264Z,22.74
2017-02-05T00:44:50.789Z,22.67
2017-02-05T00:45:19.390Z,22.65
2017-02-05T00:45:48.004Z,22.63
2017-02-05T00:46:16.625Z,22.65
2017-02-05T00:46:45.264Z,22.63
2017-02-05T00:47:13.776Z,22.63
2017-02-05T00:47:42.390Z,22.58
2017-02-05T00:48:11.012Z,22.53
2017-02-05T00:48:39.624Z,22.61
2017-02-05T00:49:08.251Z,22.53
2017-02-05T00:49:36.872Z,22.56
2017-02-05T00:50:05.405Z,22.55
2017-02-05T00:50:34.045Z,22.56
2017-02-05T00:51:02.660Z,22.53
2017-02-05T00:51:31.290Z,22.47
2017-02-05T00:51:59.883Z,22.37
2017-02-05T00:52:28.431Z,22.4
2017-02-05T00:52:57.039Z,22.36
2017-02-05T00:53:25.628Z,22.4
2017-02-05T00:53:54.253Z,22.37
2017-02-05T00:54:22.854Z,22.38
2017-02-05T00:54:51.448Z,22.4
2017-02-05T00:55:19.988Z,22.31
2017-02-05T00:55:48.603Z,22.33
2017-02-05T00:56:17.235Z,22.3
2017-02-05T00:56:45.899Z,22.26
2017-02-05T00:57:14.248Z,22.31
2017-02-05T00:57:42.856Z,22.3
2017-02-05T00:58:11.471Z,22.25
2017-02-05T00:58:40.073Z,22.25
2017-02-05T00:59:08.669Z,22.28
2017-02-05T00:59:37.195Z,22.25
2017-02-05T01:00:05.852Z,22.26
2017-02-05T01:00:34.602Z,22.28
2017-02-05T01:01:03.117Z,22.23
2017-02-05T01:01:31.741Z,22.3
2017-02-05T01:02:00.349Z,22.28
2017-02-05T01:02:28.886Z,22.21
2017-02-05T01:02:57.497Z,22.26
2017-02-05T01:03:26.117Z,22.22
2017-02-05T01:03:54.743Z,22.21
2017-02-05T01:04:23.334Z,22.26
2017-02-05T01:04:51.943Z,22.3
2017-02-05T01:05:20.347Z,22.31
2017-02-05T01:05:48.955Z,22.31
2017-02-05T01:06:17.556Z,22.26
2017-02-05T01:06:46.149Z,22.37
2017-02-05T01:07:14.646Z,22.31
2017-02-05T01:07:43.160Z,22.26
2017-02-05T01:08:11.787Z,22.28
2017-02-05T01:08:40.412Z,22.33
2017-02-05T01:09:09.366Z,22.41
2017-02-05T01:09:37.879Z,22.33
2017-02-05T01:10:06.501Z,22.33
2017-02-05T01:10:35.093Z,22.38
2017-02-05T01:11:03.704Z,22.33
2017-02-05T01:11:32.242Z,22.33
2017-02-05T01:12:00.788Z,22.34
2017-02-05T01:12:29.395Z,22.3
2017-02-05T01:12:58.032Z,22.28
2017-02-05T01:13:26.643Z,22.31
2017-02-05T01:13:55.251Z,22.25
2017-02-05T01:14:23.678Z,22.31
2017-02-05T01:14:52.310Z,22.3
2017-02-05T01:15:20.946Z,22.34
2017-02-05T01:15:49.540Z,22.37
2017-02-05T01:16:18.148Z,22.26
2017-02-05T01:16:46.700Z,22.33
2017-02-05T01:17:15.239Z,22.25
2017-02-05T01:17:43.874Z,22.3
2017-02-05T01:18:12.494Z,22.31
2017-02-05T01:18:41.119Z,22.36
2017-02-05T01:19:09.738Z,22.26
2017-02-05T01:19:38.341Z,22.25
2017-02-05T01:20:06.964Z,22.21
2017-02-05T01:20:35.486Z,22.16
2017-02-05T01:21:04.119Z,22.23
2017-02-05T01:21:32.750Z,22.15
2017-02-05T01:22:01.397Z,22.16
2017-02-05T01:22:30.026Z,22.21
2017-02-05T01:22:58.663Z,22.23
2017-02-05T01:23:27.281Z,22.18
2017-02-05T01:23:55.832Z,22.16
2017-02-05T01:24:24.424Z,22.22
2017-02-05T01:24:53.025Z,22.21
2017-02-05T01:25:21.641Z,22.16
2017-02-05T01:25:50.173Z,22.19
2017-02-05T01:26:18.801Z,22.19
2017-02-05T01:26:47.244Z,22.19
2017-02-05T01:27:15.832Z,22.19
2017-02-05T01:27:44.376Z,22.14
2017-02-05T01:28:12.975Z,22.12
2017-02-05T01:28:41.618Z,22.18
2017-02-05T01:29:10.237Z,22.14
2017-02-05T01:29:38.847Z,22.23
2017-02-05T01:30:07.495Z,22.21
2017-02-05T01:30:36.122Z,22.25
2017-02-05T01:31:04.649Z,22.1
2017-02-05T01:31:33.233Z,22.04
2017-02-05T01:32:01.763Z,22.12
2017-02-05T01:32:30.410Z,22.14
2017-02-05T01:32:59.013Z,22.1
2017-02-05T01:33:27.566Z,22.07
2017-02-05T01:33:56.220Z,22.12
2017-02-05T01:34:24.844Z,22.08
2017-02-05T01:34:53.456Z,22.12
2017-02-05T01:35:22.076Z,22.1
2017-02-05T01:35:50.705Z,22.14
2017-02-05T01:36:19.319Z,22.07
2017-02-05T01:36:47.912Z,22.08
2017-02-05T01:37:16.512Z,22.15
2017-02-05T01:37:45.099Z,22.1
2017-02-05T01:38:13.615Z,22.12
2017-02-05T01:38:42.221Z,22.04
2017-02-05T01:39:10.797Z,22.12
2017-02-05T01:39:39.440Z,22.12
2017-02-05T01:40:08.047Z,22.15
2017-02-05T01:40:36.654Z,22.14
2017-02-05T01:41:05.157Z,22.03
2017-02-05T01:41:33.784Z,22
2017-02-05T01:42:02.409Z,22.03
2017-02-05T01:42:30.942Z,22.08
2017-02-05T01:42:59.564Z,22.1
2017-02-05T01:43:28.189Z,22.06
2017-02-05T01:43:56.813Z,22.06
2017-02-05T01:44:25.357Z,22.06
2017-02-05T01:44:53.877Z,22.12
2017-02-05T01:45:22.495Z,22.06
2017-02-05T01:45:51.116Z,22.06
2017-02-05T01:46:19.740Z,22.04
2017-02-05T01:46:48.353Z,22.06
2017-02-05T01:47:16.867Z,22
2017-02-05T01:47:45.493Z,22.1
2017-02-05T01:48:14.116Z,22.12
2017-02-05T01:48:42.742Z,22.08
2017-02-05T01:49:11.356Z,22.19
2017-02-05T01:49:39.950Z,22.12
2017-02-05T01:50:08.498Z,22.06
2017-02-05T01:50:37.041Z,22.08
2017-02-05T01:51:05.659Z,22.04
2017-02-05T01:51:34.271Z,22
2017-02-05T01:52:02.903Z,22.15
2017-02-05T01:52:31.500Z,22
2017-02-05T01:53:00.146Z,22.03
2017-02-05T01:53:28.662Z,22.1
2017-02-05T01:53:57.199Z,22.03
2017-02-05T01:54:25.832Z,22.1
2017-02-05T01:54:54.486Z,22.06
2017-02-05T01:55:23.098Z,22.07
2017-02-05T01:55:51.732Z,22.08
2017-02-05T01:56:20.336Z,22.14
2017-02-05T01:56:48.939Z,22.08
2017-02-05T01:57:17.437Z,22.15
2017-02-05T01:57:46.049Z,22.07
2017-02-05T01:58:14.660Z,22.14
2017-02-05T01:58:43.266Z,22.16
2017-02-05T01:59:11.889Z,22.07
2017-02-05T01:59:40.432Z,22.12
2017-02-05T02:00:08.962Z,22.14
2017-02-05T02:00:37.503Z,22.15
2017-02-05T02:01:06.112Z,22.15
2017-02-05T02:01:34.751Z,22.03
2017-02-05T02:02:03.577Z,22.08
2017-02-05T02:02:32.140Z,22.08
2017-02-05T02:03:00.642Z,22.06
2017-02-05T02:03:29.279Z,22.07
2017-02-05T02:03:57.947Z,21.96
2017-02-05T02:04:26.580Z,22
2017-02-05T02:04:55.264Z,22.07
2017-02-05T02:05:23.919Z,22.04
2017-02-05T02:05:52.441Z,22.1
2017-02-05T02:06:21.053Z,22.04
2017-02-05T02:06:49.702Z,22.07
2017-02-05T02:07:18.300Z,22.01
2017-02-05T02:07:46.825Z,21.97
2017-02-05T02:08:15.443Z,21.99
2017-02-05T02:08:43.955Z,21.99
2017-02-05T02:09:12.593Z,22
2017-02-05T02:09:41.235Z,22.01
2017-02-05T02:10:09.870Z,22.03
2017-02-05T02:10:38.408Z,21.96
2017-02-05T02:11:07.054Z,21.96
2017-02-05T02:11:35.673Z,21.97
2017-02-05T02:12:04.326Z,21.99
2017-02-05T02:12:32.959Z,21.97
2017-02-05T02:13:01.550Z,22.04
2017-02-05T02:13:30.198Z,22.08
2017-02-05T02:13:58.839Z,22.01
2017-02-05T02:14:27.656Z,22.06
2017-02-05T02:14:56.312Z,22.04
2017-02-05T02:15:24.814Z,22.08
2017-02-05T02:15:53.355Z,22.07
2017-02-05T02:16:21.903Z,22
2017-02-05T02:16:50.525Z,22.08
2017-02-05T02:17:19.158Z,22.12
2017-02-05T02:17:47.704Z,22.07
2017-02-05T02:18:16.332Z,22.14
2017-02-05T02:18:44.945Z,22.12
2017-02-05T02:19:13.455Z,22.08
2017-02-05T02:19:42.008Z,22.1
2017-02-05T02:20:10.626Z,22.12
2017-02-05T02:20:39.231Z,22.1
2017-02-05T02:21:07.869Z,22.16
2017-02-05T02:21:36.374Z,22.1
2017-02-05T02:22:05.007Z,22.12
2017-02-05T02:22:33.629Z,22.06
2017-02-05T02:23:02.168Z,22.12
2017-02-05T02:23:30.773Z,22.03
2017-02-05T02:23:59.385Z,22.1
2017-02-05T02:24:27.834Z,22.1
2017-02-05T02:24:56.359Z,22.08
2017-02-05T02:25:24.908Z,22.12
2017-02-05T02:25:53.549Z,22
2017-02-05T02:26:22.071Z,22.01
2017-02-05T02:26:50.695Z,21.91
2017-02-05T02:27:19.322Z,21.92
2017-02-05T02:27:47.930Z,21.99
2017-02-05T02:28:16.577Z,22.01
2017-02-05T02:28:45.101Z,22
2017-02-05T02:29:13.721Z,21.91
2017-02-05T02:29:42.358Z,22.03
2017-02-05T02:30:10.799Z,21.91
2017-02-05T02:30:39.413Z,21.97
2017-02-05T02:31:08.079Z,21.92
2017-02-05T02:31:36.601Z,21.97
2017-02-05T02:32:05.236Z,21.96
2017-02-05T02:32:33.950Z,21.88
2017-02-05T02:33:02.567Z,21.96
2017-02-05T02:33:31.110Z,21.91
2017-02-05T02:33:59.731Z,21.94
2017-02-05T02:34:28.385Z,21.85
2017-02-05T02:34:56.990Z,21.85
2017-02-05T02:35:25.626Z,21.88
2017-02-05T02:35:54.263Z,21.88
2017-02-05T02:36:22.783Z,21.91
2017-02-05T02:36:51.333Z,21.92
2017-02-05T02:37:19.950Z,21.85
2017-02-05T02:37:48.547Z,21.89
2017-02-05T02:38:17.159Z,21.94
2017-02-05T02:38:45.784Z,21.89
2017-02-05T02:39:14.313Z,21.94
2017-02-05T02:39:42.927Z,21.89
2017-02-05T02:40:11.560Z,21.85
2017-02-05T02:40:40.170Z,22.01
2017-02-05T02:41:08.787Z,22.03
2017-02-05T02:41:37.410Z,21.94
2017-02-05T02:42:06.043Z,21.94
2017-02-05T02:42:34.646Z,21.99
2017-02-05T02:43:03.250Z,21.96
2017-02-05T02:43:31.869Z,22.03
2017-02-05T02:44:00.501Z,21.99
2017-02-05T02:44:29.113Z,21.88
2017-02-05T02:44:57.754Z,21.89
2017-02-05T02:45:26.259Z,21.99
2017-02-05T02:45:54.788Z,21.89
2017-02-05T02:46:23.420Z,21.99
2017-02-05T02:46:52.047Z,21.99
2017-02-05T02:47:20.664Z,21.92
2017-02-05T02:47:49.295Z,22.01
2017-02-05T02:48:17.911Z,21.99
2017-02-05T02:48:46.526Z,21.84
2017-02-05T02:49:15.162Z,22.01
2017-02-05T02:49:43.781Z,21.91
2017-02-05T02:50:12.305Z,21.99
2017-02-05T02:50:40.856Z,21.92
2017-02-05T02:51:09.363Z,21.85
2017-02-05T02:51:37.977Z,21.88
2017-02-05T02:52:06.598Z,21.89
2017-02-05T02:52:35.226Z,21.92
2017-02-05T02:53:03.901Z,21.85
2017-02-05T02:53:32.511Z,21.83
2017-02-05T02:54:01.118Z,21.84
2017-02-05T02:54:29.700Z,21.84
2017-02-05T02:54:58.309Z,21.84
2017-02-05T02:55:26.918Z,21.89
2017-02-05T02:55:55.452Z,21.88
2017-02-05T02:56:23.976Z,21.81
2017-02-05T02:56:52.629Z,21.89
2017-02-05T02:57:21.281Z,21.88
2017-02-05T02:57:49.846Z,21.91
2017-02-05T02:58:18.212Z,21.92
2017-02-05T02:58:46.834Z,21.91
2017-02-05T02:59:15.441Z,21.96
2017-02-05T02:59:44.063Z,21.91
2017-02-05T03:00:12.511Z,21.96
2017-02-05T03:00:42.726Z,21.97
2017-02-05T03:01:11.318Z,21.94
2017-02-05T03:01:39.929Z,22
2017-02-05T03:02:08.531Z,21.99
2017-02-05T03:02:37.159Z,21.91
2017-02-05T03:03:05.790Z,21.97
2017-02-05T03:03:34.413Z,21.92
2017-02-05T03:04:03.041Z,21.96
2017-02-05T03:04:31.660Z,21.99
2017-02-05T03:05:00.181Z,21.91
2017-02-05T03:05:28.695Z,21.85
2017-02-05T03:05:57.215Z,21.92
2017-02-05T03:06:25.650Z,21.97
2017-02-05T03:06:54.273Z,21.96
2017-02-05T03:07:22.888Z,21.89
2017-02-05T03:07:51.398Z,21.89
2017-02-05T03:08:20.020Z,21.88
2017-02-05T03:08:48.651Z,21.84
2017-02-05T03:09:17.259Z,21.83
2017-02-05T03:09:45.924Z,21.91
2017-02-05T03:10:14.560Z,21.92
2017-02-05T03:10:43.110Z,21.8
2017-02-05T03:11:11.727Z,21.85
2017-02-05T03:11:40.255Z,21.83
2017-02-05T03:12:08.880Z,21.85
2017-02-05T03:12:37.443Z,21.8
2017-02-05T03:13:06.059Z,21.84
2017-02-05T03:13:34.685Z,21.84
2017-02-05T03:14:03.312Z,21.83
2017-02-05T03:14:31.841Z,21.88
2017-02-05T03:15:00.439Z,21.83
2017-02-05T03:15:29.056Z,21.78
2017-02-05T03:15:57.583Z,21.8
2017-02-05T03:16:26.212Z,21.85
2017-02-05T03:16:54.730Z,21.88
2017-02-05T03:17:23.334Z,21.78
2017-02-05T03:17:51.917Z,21.78
2017-02-05T03:18:20.524Z,21.85
2017-02-05T03:18:49.155Z,21.75
2017-02-05T03:19:17.767Z,21.89
2017-02-05T03:19:46.303Z,21.83
2017-02-05T03:20:14.817Z,21.8
2017-02-05T03:20:43.420Z,21.85
2017-02-05T03:21:12.011Z,21.8
2017-02-05T03:21:40.538Z,21.83
2017-02-05T03:22:09.148Z,21.8
2017-02-05T03:22:37.758Z,21.81
2017-02-05T03:23:06.389Z,21.83
2017-02-05T03:23:35.020Z,21.77
2017-02-05T03:24:03.697Z,21.75
2017-02-05T03:24:33.095Z,21.77
2017-02-05T03:25:01.745Z,21.75
2017-02-05T03:25:30.382Z,21.78
2017-02-05T03:25:58.992Z,21.75
2017-02-05T03:26:27.557Z,21.81
2017-02-05T03:26:56.194Z,21.65
2017-02-05T03:27:24.820Z,21.74
2017-02-05T03:27:53.443Z,21.74
2017-02-05T03:28:21.984Z,21.81
2017-02-05T03:28:50.604Z,21.81
2017-02-05T03:29:19.268Z,21.81
2017-02-05T03:29:47.882Z,21.83
2017-02-05T03:30:16.495Z,21.77
2017-02-05T03:30:45.117Z,21.78
2017-02-05T03:31:13.654Z,21.84
2017-02-05T03:31:42.256Z,21.78
2017-02-05T03:32:10.881Z,21.8
2017-02-05T03:32:39.503Z,21.8
2017-02-05T03:33:08.135Z,21.77
2017-02-05T03:33:36.754Z,21.85
2017-02-05T03:34:05.390Z,21.78
2017-02-05T03:34:33.992Z,21.89
2017-02-05T03:35:02.615Z,21.83
2017-02-05T03:35:31.244Z,21.83
2017-02-05T03:35:59.749Z,21.88
2017-02-05T03:36:28.390Z,21.8
2017-02-05T03:36:56.994Z,21.89
2017-02-05T03:37:25.598Z,21.85
2017-02-05T03:37:54.256Z,21.81
2017-02-05T03:38:22.924Z,21.74
2017-02-05T03:38:51.573Z,21.8
2017-02-05T03:39:20.234Z,21.77
2017-02-05T03:39:48.738Z,21.89
2017-02-05T03:40:17.348Z,21.81
2017-02-05T03:41:28.953Z,21.81
2017-02-05T03:41:57.625Z,21.89
2017-02-05T03:42:26.229Z,21.88
2017-02-05T03:42:54.860Z,21.8
2017-02-05T03:43:23.499Z,21.75
2017-02-05T03:43:52.139Z,21.8
2017-02-05T03:44:20.764Z,21.77
2017-02-05T03:44:49.310Z,21.75
2017-02-05T03:45:17.949Z,21.74
2017-02-05T03:45:46.558Z,21.77
2017-02-05T03:46:15.312Z,21.74
2017-02-05T03:46:44.048Z,21.68
2017-02-05T03:47:12.547Z,21.81
2017-02-05T03:47:41.186Z,21.77
2017-02-05T03:48:09.798Z,21.8
2017-02-05T03:48:38.428Z,21.75
2017-02-05T03:49:07.046Z,21.78
2017-02-05T03:49:35.633Z,21.75
2017-02-05T03:50:04.260Z,21.78
2017-02-05T03:50:32.900Z,21.75
2017-02-05T03:51:01.551Z,21.8
2017-02-05T03:51:30.129Z,21.8
2017-02-05T03:51:58.719Z,21.83
2017-02-05T03:52:27.317Z,21.78
2017-02-05T03:52:55.938Z,21.85
2017-02-05T03:53:24.558Z,21.88
2017-02-05T03:53:53.083Z,21.85
2017-02-05T03:54:21.687Z,21.83
2017-02-05T03:54:50.319Z,21.81
2017-02-05T03:55:18.932Z,21.83
2017-02-05T03:55:47.544Z,21.77
2017-02-05T03:56:16.162Z,21.8
2017-02-05T03:56:44.686Z,21.78
2017-02-05T03:57:13.373Z,21.77
2017-02-05T03:57:41.963Z,21.74
2017-02-05T03:58:10.589Z,21.66
2017-02-05T03:58:45.094Z,21.66
2017-02-05T03:59:14.338Z,21.62
2017-02-05T03:59:42.851Z,21.7
2017-02-05T04:00:11.468Z,21.66
2017-02-05T04:00:40.105Z,21.56
2017-02-05T04:01:08.713Z,21.6
2017-02-05T04:01:37.242Z,21.62
2017-02-05T04:02:05.839Z,21.59
2017-02-05T04:02:34.370Z,21.65
2017-02-05T04:03:03.019Z,21.62
2017-02-05T04:03:31.639Z,21.62
2017-02-05T04:04:00.252Z,21.69
2017-02-05T04:04:28.876Z,21.53
2017-02-05T04:04:57.394Z,21.51
2017-02-05T04:05:26.014Z,21.6
2017-02-05T04:05:54.652Z,21.54
2017-02-05T04:06:23.271Z,21.58
2017-02-05T04:06:51.809Z,21.54
2017-02-05T04:07:20.316Z,21.53
2017-02-05T04:07:48.877Z,21.51
2017-02-05T04:08:17.484Z,21.58
2017-02-05T04:08:46.104Z,21.56
2017-02-05T04:09:14.717Z,21.53
2017-02-05T04:09:43.337Z,21.53
2017-02-05T04:10:11.867Z,21.53
2017-02-05T04:10:40.513Z,21.54
2017-02-05T04:11:09.118Z,21.58
2017-02-05T04:11:37.673Z,21.58
2017-02-05T04:12:06.303Z,21.58
2017-02-05T04:12:34.923Z,21.56
2017-02-05T04:13:03.535Z,21.51
2017-02-05T04:13:32.127Z,21.56
2017-02-05T04:14:00.735Z,21.51
2017-02-05T04:14:29.068Z,21.56
2017-02-05T04:14:57.689Z,21.56
2017-02-05T04:15:26.317Z,21.59
2017-02-05T04:15:54.983Z,21.58
2017-02-05T04:16:23.616Z,21.51
2017-02-05T04:16:52.267Z,21.53
2017-02-05T04:17:20.772Z,21.56
2017-02-05T04:17:49.424Z,21.56
2017-02-05T04:18:18.043Z,21.59
2017-02-05T04:18:46.550Z,21.48
2017-02-05T04:19:15.085Z,21.58
2017-02-05T04:19:43.723Z,21.53
2017-02-05T04:20:12.349Z,21.59
2017-02-05T04:20:40.968Z,21.51
2017-02-05T04:21:09.466Z,21.62
2017-02-05T04:21:38.088Z,21.53
2017-02-05T04:22:06.714Z,21.54
2017-02-05T04:22:35.341Z,21.54
2017-02-05T04:23:03.953Z,21.62
2017-02-05T04:23:32.573Z,21.68
2017-02-05T04:24:01.105Z,21.62
2017-02-05T04:24:29.734Z,21.53
2017-02-05T04:24:58.348Z,21.63
2017-02-05T04:25:26.968Z,21.63
2017-02-05T04:25:55.598Z,21.66
2017-02-05T04:26:24.204Z,21.62
2017-02-05T04:26:52.801Z,21.58
2017-02-05T04:27:21.349Z,21.54
2017-02-05T04:27:49.878Z,21.58
2017-02-05T04:28:18.390Z,21.6
2017-02-05T04:28:47.009Z,21.56
2017-02-05T04:29:16.662Z,21.53
2017-02-05T04:29:45.267Z,21.51
2017-02-05T04:30:13.905Z,21.58
2017-02-05T04:30:42.420Z,21.51
2017-02-05T04:31:11.035Z,21.56
2017-02-05T04:31:39.636Z,21.56
2017-02-05T04:32:08.246Z,21.51
2017-02-05T04:32:36.855Z,21.59
2017-02-05T04:33:05.502Z,21.54
2017-02-05T04:33:34.143Z,21.51
2017-02-05T04:34:02.754Z,21.54
2017-02-05T04:34:31.284Z,21.51
2017-02-05T04:34:59.814Z,21.56
2017-02-05T04:35:28.424Z,21.65
2017-02-05T04:35:56.942Z,21.62
2017-02-05T04:36:25.476Z,21.63
2017-02-05T04:36:54.091Z,21.62
2017-02-05T04:37:22.693Z,21.68
2017-02-05T04:37:51.320Z,21.66
2017-02-05T04:38:19.954Z,21.69
2017-02-05T04:38:48.581Z,21.69
2017-02-05T04:39:17.193Z,21.66
2017-02-05T04:39:45.816Z,21.68
2017-02-05T04:40:14.153Z,21.69
2017-02-05T04:40:42.775Z,21.6
2017-02-05T04:41:11.384Z,21.58
2017-02-05T04:41:40.000Z,21.5
2017-02-05T04:42:08.603Z,21.58
2017-02-05T04:42:37.230Z,21.54
2017-02-05T04:43:05.845Z,21.5
2017-02-05T04:43:34.922Z,21.65
2017-02-05T04:44:04.273Z,21.6
2017-02-05T04:44:32.874Z,21.59
2017-02-05T04:45:01.507Z,21.6
2017-02-05T04:45:30.126Z,21.62
2017-02-05T04:45:58.761Z,21.63
2017-02-05T04:46:27.405Z,21.62
2017-02-05T04:46:56.012Z,21.69
2017-02-05T04:47:24.632Z,21.56
2017-02-05T04:47:53.177Z,21.59
2017-02-05T04:48:21.792Z,21.63
2017-02-05T04:48:50.405Z,21.66
2017-02-05T04:49:18.948Z,21.65
2017-02-05T04:49:47.579Z,21.68
2017-02-05T04:50:16.195Z,21.7
2017-02-05T04:50:44.815Z,21.66
2017-02-05T04:51:13.649Z,21.62
2017-02-05T04:51:42.280Z,21.62
2017-02-05T04:52:11.958Z,21.54
2017-02-05T04:52:41.186Z,21.65
2017-02-05T04:53:09.804Z,21.65
2017-02-05T04:53:38.609Z,21.63
2017-02-05T04:54:07.251Z,21.54
2017-02-05T04:54:35.811Z,21.53
2017-02-05T04:55:08.977Z,21.65
2017-02-05T04:55:37.833Z,21.6
2017-02-05T04:56:06.436Z,21.66
2017-02-05T04:56:34.980Z,21.6
2017-02-05T04:57:03.580Z,21.65
2017-02-05T04:57:32.189Z,21.68
2017-02-05T04:58:00.805Z,21.65
2017-02-05T04:58:29.428Z,21.68
2017-02-05T04:58:58.237Z,21.66
2017-02-05T04:59:27.090Z,21.65
2017-02-05T04:59:55.726Z,21.78
2017-02-05T05:00:24.371Z,21.62
2017-02-05T05:00:52.979Z,21.7
2017-02-05T05:01:21.615Z,21.65
2017-02-05T05:01:50.224Z,21.63
2017-02-05T05:02:18.844Z,21.74
2017-02-05T05:02:47.350Z,21.69
2017-02-05T05:03:15.866Z,21.69
2017-02-05T05:03:44.472Z,21.69
2017-02-05T05:04:13.107Z,21.63
2017-02-05T05:04:41.762Z,21.69
2017-02-05T05:05:10.393Z,21.66
2017-02-05T05:05:39.055Z,21.66
2017-02-05T05:06:07.666Z,21.66
2017-02-05T05:06:36.157Z,21.69
2017-02-05T05:07:04.757Z,21.75
2017-02-05T05:07:33.396Z,21.74
2017-02-05T05:08:02.008Z,21.66
2017-02-05T05:08:30.540Z,21.68
2017-02-05T05:08:59.146Z,21.66
2017-02-05T05:09:27.804Z,21.68
2017-02-05T05:09:56.423Z,21.69
2017-02-05T05:10:24.939Z,21.66
2017-02-05T05:10:53.543Z,21.66
2017-02-05T05:11:22.081Z,21.7
2017-02-05T05:11:50.714Z,21.68
2017-02-05T05:12:19.318Z,21.66
2017-02-05T05:12:47.935Z,21.7
2017-02-05T05:13:16.562Z,21.77
2017-02-05T05:13:45.164Z,21.74
2017-02-05T05:14:13.690Z,21.8
2017-02-05T05:14:42.318Z,21.81
2017-02-05T05:15:10.875Z,21.88
2017-02-05T05:15:39.466Z,21.78
2017-02-05T05:16:07.986Z,21.89
2017-02-05T05:16:36.589Z,21.83
2017-02-05T05:17:05.197Z,21.85
2017-02-05T05:17:33.813Z,21.84
2017-02-05T05:18:02.443Z,21.84
2017-02-05T05:18:31.002Z,21.88
2017-02-05T05:18:59.631Z,21.89
2017-02-05T05:19:28.225Z,21.84
2017-02-05T05:19:56.862Z,21.89
2017-02-05T05:20:25.401Z,21.85
2017-02-05T05:20:54.051Z,21.88
2017-02-05T05:21:22.587Z,21.88
2017-02-05T05:21:51.188Z,21.94
2017-02-05T05:22:19.733Z,21.85
2017-02-05T05:22:48.342Z,21.88
2017-02-05T05:23:16.959Z,21.94
2017-02-05T05:23:45.554Z,21.89
2017-02-05T05:24:14.080Z,21.85
2017-02-05T05:24:42.711Z,21.91
2017-02-05T05:25:11.324Z,21.85
2017-02-05T05:25:39.759Z,21.96
2017-02-05T05:26:08.379Z,21.97
2017-02-05T05:26:36.784Z,21.97
2017-02-05T05:27:05.448Z,21.97
2017-02-05T05:27:34.063Z,21.97
2017-02-05T05:28:02.703Z,21.96
2017-02-05T05:28:31.255Z,21.94
2017-02-05T05:28:59.907Z,22.03
2017-02-05T05:29:28.525Z,22.01
2017-02-05T05:29:57.146Z,21.99
2017-02-05T05:30:25.765Z,22.06
2017-02-05T05:30:54.385Z,22.07
2017-02-05T05:31:22.978Z,22.01
2017-02-05T05:31:51.591Z,22.1
2017-02-05T05:32:20.102Z,22.03
2017-02-05T05:32:48.625Z,22.14
2017-02-05T05:33:17.266Z,22.01
2017-02-05T05:33:45.807Z,22.07
2017-02-05T05:34:14.315Z,22.15
2017-02-05T05:34:42.948Z,22.15
2017-02-05T05:35:11.494Z,22.15
2017-02-05T05:35:40.014Z,22.08
2017-02-05T05:36:08.643Z,22.1
2017-02-05T05:36:37.278Z,22.1
2017-02-05T05:37:05.915Z,22.08
2017-02-05T05:37:34.647Z,22.08
2017-02-05T05:38:03.268Z,22.12
2017-02-05T05:38:31.871Z,22.07
2017-02-05T05:39:00.501Z,22.01
2017-02-05T05:39:29.052Z,22.03
2017-02-05T05:39:57.672Z,21.99
2017-02-05T05:40:26.187Z,21.99
2017-02-05T05:40:54.804Z,21.94
2017-02-05T05:41:23.404Z,21.99
2017-02-05T05:41:52.044Z,22.03
2017-02-05T05:42:20.895Z,21.89
2017-02-05T05:42:49.414Z,21.91
2017-02-05T05:43:18.045Z,21.94
2017-02-05T05:43:46.677Z,21.83
2017-02-05T05:44:15.213Z,22.03
2017-02-05T05:44:43.892Z,21.92
2017-02-05T05:45:12.543Z,21.97
2017-02-05T05:45:41.146Z,21.94
2017-02-05T05:46:09.771Z,21.91
2017-02-05T05:46:38.382Z,21.91
2017-02-05T05:47:07.018Z,21.84
2017-02-05T05:47:35.676Z,21.89
2017-02-05T05:48:04.295Z,21.8
2017-02-05T05:48:32.817Z,21.8
2017-02-05T05:49:01.406Z,21.84
2017-02-05T05:49:30.000Z,21.83
2017-02-05T05:49:58.603Z,21.83
2017-02-05T05:50:27.187Z,21.85
2017-02-05T05:50:55.797Z,21.81
2017-02-05T05:51:24.426Z,21.8
2017-02-05T05:51:53.046Z,21.7
2017-02-05T05:52:21.664Z,21.74
2017-02-05T05:52:50.290Z,21.65
2017-02-05T05:53:18.904Z,21.65
2017-02-05T05:53:47.415Z,21.66
2017-02-05T05:54:16.024Z,21.75
2017-02-05T05:54:44.643Z,21.66
2017-02-05T05:55:13.233Z,21.66
2017-02-05T05:55:41.869Z,21.62
2017-02-05T05:56:10.389Z,21.53
2017-02-05T05:56:39.000Z,21.53
2017-02-05T05:57:07.624Z,21.5
2017-02-05T05:57:36.281Z,21.54
2017-02-05T05:58:04.917Z,21.58
2017-02-05T05:58:33.563Z,21.53
2017-02-05T05:59:02.082Z,21.56
2017-02-05T05:59:30.700Z,21.48
2017-02-05T05:59:59.307Z,21.53
2017-02-05T06:00:27.820Z,21.56
2017-02-05T06:00:56.425Z,21.65
2017-02-05T06:01:25.040Z,21.51
2017-02-05T06:01:53.653Z,21.56
2017-02-05T06:02:22.172Z,21.56
2017-02-05T06:02:50.789Z,21.62
2017-02-05T06:03:19.406Z,21.62
2017-02-05T06:03:48.031Z,21.63
2017-02-05T06:04:16.644Z,21.6
2017-02-05T06:04:45.248Z,21.58
2017-02-05T06:05:13.786Z,21.63
2017-02-05T06:05:42.424Z,21.56
2017-02-05T06:06:11.033Z,21.59
2017-02-05T06:06:39.642Z,21.56
2017-02-05T06:07:08.246Z,21.65
2017-02-05T06:07:36.769Z,21.63
2017-02-05T06:08:05.418Z,21.65
2017-02-05T06:08:34.066Z,21.69
2017-02-05T06:09:02.658Z,21.66
2017-02-05T06:09:31.255Z,21.74
2017-02-05T06:09:59.873Z,21.81
2017-02-05T06:10:28.493Z,21.72